createdAt,value
2019-01-26T00:00:38.705Z,6.05
2019-01-26T00:03:07.603Z,3.17
2019-01-26T00:05:35.886Z,3.75
2019-01-26T00:08:04.101Z,4.15
2019-01-26T00:10:32.332Z,3.15
2019-01-26T00:13:00.550Z,2.22
2019-01-26T00:15:28.785Z,2.98
2019-01-26T00:17:57.045Z,2.15
2019-01-26T00:20:25.233Z,2.15
2019-01-26T00:22:53.536Z,1.45
2019-01-26T00:25:21.771Z,2.00
2019-01-26T00:27:49.990Z,1.72
2019-01-26T00:30:18.234Z,1.40
2019-01-26T00:32:46.468Z,1.22
2019-01-26T00:35:14.691Z,2.12
2019-01-26T00:37:42.953Z,1.25
2019-01-26T00:40:12.348Z,2.12
2019-01-26T00:42:40.652Z,2.42
2019-01-26T00:45:10.414Z,1.17
2019-01-26T00:47:38.660Z,0.93
2019-01-26T00:50:09.291Z,1.52
2019-01-26T00:52:37.560Z,1.25
2019-01-26T00:55:07.608Z,1.32
2019-01-26T00:57:35.832Z,0.70
2019-01-26T01:00:16.253Z,0.98
2019-01-26T01:02:44.455Z,0.98
2019-01-26T01:05:12.903Z,1.40
2019-01-26T01:07:42.156Z,0.85
2019-01-26T01:10:15.603Z,1.85
2019-01-26T01:12:43.833Z,1.77
2019-01-26T01:15:14.981Z,2.70
2019-01-26T01:17:43.256Z,1.17
2019-01-26T01:20:11.873Z,1.65
2019-01-26T01:22:40.087Z,1.02
2019-01-26T01:25:10.478Z,1.30
2019-01-26T01:27:38.797Z,1.40
2019-01-26T01:30:16.370Z,1.32
2019-01-26T01:32:44.604Z,1.30
2019-01-26T01:35:12.839Z,1.17
2019-01-26T01:37:41.053Z,1.62
2019-01-26T01:40:11.491Z,0.85
2019-01-26T01:42:40.084Z,1.20
2019-01-26T01:45:11.583Z,2.60
2019-01-26T01:47:39.853Z,1.32
2019-01-26T01:50:09.361Z,1.25
2019-01-26T01:52:37.634Z,1.70
2019-01-26T01:55:08.840Z,1.17
2019-01-26T01:57:37.108Z,1.60
2019-01-26T02:00:08.646Z,2.20
2019-01-26T02:02:36.981Z,1.85
2019-01-26T02:05:05.928Z,2.33
2019-01-26T02:07:34.161Z,1.65
2019-01-26T02:10:02.446Z,2.30
2019-01-26T02:12:30.683Z,1.10
2019-01-26T02:14:58.994Z,3.02
2019-01-26T02:17:27.216Z,2.22
2019-01-26T02:19:55.457Z,1.82
2019-01-26T02:22:23.775Z,1.52
2019-01-26T02:24:52.011Z,2.08
2019-01-26T02:27:20.454Z,2.83
2019-01-26T02:29:51.707Z,1.95
2019-01-26T02:32:22.665Z,2.95
2019-01-26T02:34:50.936Z,2.92
2019-01-26T02:37:19.358Z,3.25
2019-01-26T02:39:47.529Z,2.90
2019-01-26T02:42:16.033Z,2.35
2019-01-26T02:44:44.265Z,3.30
2019-01-26T02:47:12.522Z,1.77
2019-01-26T02:49:42.353Z,3.00
2019-01-26T02:52:10.655Z,1.67
2019-01-26T02:54:38.903Z,2.30
2019-01-26T02:57:07.143Z,2.40
2019-01-26T02:59:35.523Z,2.98
2019-01-26T03:02:03.863Z,3.33
2019-01-26T03:04:32.141Z,1.85
2019-01-26T03:07:00.433Z,3.10
2019-01-26T03:09:28.695Z,3.00
2019-01-26T03:11:56.936Z,2.00
2019-01-26T03:14:25.176Z,1.87
2019-01-26T03:16:53.483Z,2.87
2019-01-26T03:19:21.755Z,1.87
2019-01-26T03:21:49.969Z,1.75
2019-01-26T03:24:18.203Z,2.50
2019-01-26T03:26:46.834Z,3.40
2019-01-26T03:29:15.093Z,1.90
2019-01-26T03:31:43.326Z,1.30
2019-01-26T03:34:11.603Z,3.25
2019-01-26T03:36:39.895Z,2.83
2019-01-26T03:39:08.393Z,4.87
2019-01-26T03:41:36.784Z,2.67
2019-01-26T03:44:05.573Z,3.42
2019-01-26T03:46:33.861Z,1.85
2019-01-26T03:49:02.125Z,2.42
2019-01-26T03:51:34.971Z,2.27
2019-01-26T03:54:09.251Z,2.72
2019-01-26T03:56:37.720Z,2.67
2019-01-26T03:59:06.061Z,2.67
2019-01-26T04:01:34.514Z,3.42
2019-01-26T04:04:04.089Z,1.62
2019-01-26T04:06:32.309Z,2.33
2019-01-26T04:09:01.054Z,1.45
2019-01-26T04:11:29.353Z,1.65
2019-01-26T04:13:57.635Z,2.22
2019-01-26T04:16:25.861Z,3.33
2019-01-26T04:18:54.078Z,2.20
2019-01-26T04:21:22.300Z,2.22
2019-01-26T04:23:50.592Z,4.25
2019-01-26T04:26:18.815Z,1.77
2019-01-26T04:28:47.052Z,2.80
2019-01-26T04:31:15.270Z,1.72
2019-01-26T04:33:43.517Z,1.60
2019-01-26T04:36:11.798Z,2.70
2019-01-26T04:38:40.037Z,2.02
2019-01-26T04:41:08.335Z,2.22
2019-01-26T04:43:36.586Z,3.72
2019-01-26T04:46:05.709Z,2.80
2019-01-26T04:48:34.340Z,1.75
2019-01-26T04:51:02.679Z,2.98
2019-01-26T04:53:30.919Z,1.77
2019-01-26T04:55:59.168Z,2.35
2019-01-26T04:58:27.376Z,2.37
2019-01-26T05:00:55.668Z,2.60
2019-01-26T05:03:23.878Z,1.75
2019-01-26T05:05:52.131Z,1.60
2019-01-26T05:08:20.406Z,1.42
2019-01-26T05:10:48.637Z,1.95
2019-01-26T05:13:16.922Z,1.50
2019-01-26T05:15:45.343Z,1.90
2019-01-26T05:18:13.558Z,1.50
2019-01-26T05:20:41.797Z,2.02
2019-01-26T05:23:10.042Z,2.45
2019-01-26T05:25:38.330Z,1.10
2019-01-26T05:28:06.992Z,1.27
2019-01-26T05:30:35.679Z,1.10
2019-01-26T05:33:03.923Z,1.07
2019-01-26T05:35:32.497Z,1.25
2019-01-26T05:38:00.713Z,0.88
2019-01-26T05:40:28.964Z,0.80
2019-01-26T05:42:57.404Z,0.70
2019-01-26T05:45:25.645Z,1.12
2019-01-26T05:47:53.888Z,0.60
2019-01-26T05:50:24.041Z,0.75
2019-01-26T05:52:52.315Z,0.70
2019-01-26T05:55:20.529Z,0.70
2019-01-26T05:57:48.769Z,1.47
2019-01-26T06:00:24.049Z,0.68
2019-01-26T06:02:52.288Z,0.75
2019-01-26T06:05:20.537Z,0.75
2019-01-26T06:07:50.094Z,0.72
2019-01-26T06:10:18.449Z,0.53
2019-01-26T06:12:46.658Z,0.72
2019-01-26T06:15:14.984Z,0.65
2019-01-26T06:17:43.194Z,0.95
2019-01-26T06:20:14.104Z,0.65
2019-01-26T06:22:42.335Z,0.50
2019-01-26T06:25:13.754Z,0.30
2019-01-26T06:27:42.090Z,0.42
2019-01-26T06:30:13.308Z,0.40
2019-01-26T06:32:41.560Z,0.40
2019-01-26T06:35:09.810Z,0.30
2019-01-26T06:37:38.047Z,0.40
2019-01-26T06:40:09.315Z,0.40
2019-01-26T06:42:37.547Z,0.50
2019-01-26T06:45:08.111Z,0.53
2019-01-26T06:47:36.330Z,0.50
2019-01-26T06:50:07.720Z,0.50
2019-01-26T06:52:35.950Z,0.37
2019-01-26T06:55:06.366Z,0.33
2019-01-26T06:57:34.600Z,0.30
2019-01-26T07:00:02.932Z,0.70
2019-01-26T07:02:31.200Z,1.20
2019-01-26T07:05:01.108Z,0.75
2019-01-26T07:07:29.340Z,0.60
2019-01-26T07:09:57.572Z,0.80
2019-01-26T07:12:25.803Z,0.40
2019-01-26T07:14:54.023Z,0.45
2019-01-26T07:17:23.316Z,0.68
2019-01-26T07:19:51.542Z,0.40
2019-01-26T07:22:19.768Z,0.30
2019-01-26T07:24:48.112Z,0.75
2019-01-26T07:27:16.334Z,0.50
2019-01-26T07:29:44.563Z,0.70
2019-01-26T07:32:12.869Z,0.40
2019-01-26T07:34:41.153Z,0.50
2019-01-26T07:37:09.371Z,0.42
2019-01-26T07:39:37.668Z,0.70
2019-01-26T07:42:05.933Z,0.55
2019-01-26T07:44:34.281Z,0.42
2019-01-26T07:47:02.455Z,0.60
2019-01-26T07:49:30.699Z,0.60
2019-01-26T07:51:59.395Z,0.60
2019-01-26T07:54:27.651Z,0.65
2019-01-26T07:56:55.898Z,0.50
2019-01-26T07:59:24.168Z,0.68
2019-01-26T08:01:52.394Z,1.10
2019-01-26T08:04:20.670Z,2.95
2019-01-26T08:06:49.158Z,0.80
2019-01-26T08:09:17.387Z,1.57
2019-01-26T08:11:45.598Z,1.85
2019-01-26T08:14:13.827Z,1.22
2019-01-26T08:16:42.132Z,0.82
2019-01-26T08:19:10.333Z,3.00
2019-01-26T08:21:38.626Z,1.77
2019-01-26T08:24:06.852Z,2.05
2019-01-26T08:26:35.082Z,1.05
2019-01-26T08:29:03.382Z,1.10
2019-01-26T08:31:31.671Z,0.70
2019-01-26T08:33:59.890Z,1.25
2019-01-26T08:36:28.123Z,2.17
2019-01-26T08:38:56.345Z,1.37
2019-01-26T08:41:24.731Z,2.42
2019-01-26T08:43:53.087Z,2.20
2019-01-26T08:46:21.336Z,1.07
2019-01-26T08:48:51.244Z,1.02
2019-01-26T08:51:19.427Z,1.87
2019-01-26T08:53:47.635Z,1.85
2019-01-26T08:56:16.091Z,3.40
2019-01-26T08:58:44.307Z,3.05
2019-01-26T09:01:12.525Z,2.52
2019-01-26T09:03:54.405Z,2.50
2019-01-26T09:06:24.478Z,2.37
2019-01-26T09:08:52.658Z,1.60
2019-01-26T09:11:20.877Z,2.77
2019-01-26T09:13:49.109Z,3.30
2019-01-26T09:16:17.407Z,1.85
2019-01-26T09:18:45.563Z,1.80
2019-01-26T09:21:13.802Z,2.65
2019-01-26T09:23:42.414Z,3.50
2019-01-26T09:26:10.632Z,2.47
2019-01-26T09:28:38.863Z,2.02
2019-01-26T09:31:07.198Z,1.45
2019-01-26T09:33:35.435Z,2.67
2019-01-26T09:36:04.023Z,1.85
2019-01-26T09:38:32.266Z,1.92
2019-01-26T09:41:00.497Z,3.42
2019-01-26T09:43:28.735Z,2.60
2019-01-26T09:45:57.189Z,2.15
2019-01-26T09:48:25.539Z,1.95
2019-01-26T09:50:53.766Z,2.37
2019-01-26T09:53:22.133Z,2.52
2019-01-26T09:55:50.328Z,4.30
2019-01-26T09:58:19.996Z,3.37
2019-01-26T10:00:48.302Z,2.05
2019-01-26T10:03:16.530Z,2.87
2019-01-26T10:05:44.834Z,2.75
2019-01-26T10:08:13.065Z,2.77
2019-01-26T10:10:41.356Z,2.35
2019-01-26T10:13:09.585Z,2.25
2019-01-26T10:15:37.804Z,3.02
2019-01-26T10:18:06.184Z,2.60
2019-01-26T10:20:37.384Z,2.80
2019-01-26T10:23:05.617Z,1.55
2019-01-26T10:25:33.836Z,2.17
2019-01-26T10:28:02.133Z,1.57
2019-01-26T10:30:46.202Z,1.62
2019-01-26T10:33:14.516Z,1.20
2019-01-26T10:35:44.553Z,4.50
2019-01-26T10:38:12.803Z,4.05
2019-01-26T10:40:42.690Z,3.15
2019-01-26T10:43:12.107Z,2.42
2019-01-26T10:45:40.329Z,3.33
2019-01-26T10:48:08.867Z,3.02
2019-01-26T10:50:37.131Z,3.05
2019-01-26T10:53:05.332Z,3.08
2019-01-26T10:55:33.903Z,1.90
2019-01-26T10:58:02.135Z,2.87
2019-01-26T11:00:30.356Z,2.08
2019-01-26T11:02:58.594Z,2.62
2019-01-26T11:05:26.879Z,3.15
2019-01-26T11:07:55.286Z,1.72
2019-01-26T11:10:23.522Z,3.92
2019-01-26T11:12:51.723Z,2.45
2019-01-26T11:15:19.937Z,2.50
2019-01-26T11:17:48.480Z,1.42
2019-01-26T11:20:16.848Z,4.45
2019-01-26T11:22:45.092Z,1.82
2019-01-26T11:25:13.573Z,4.08
2019-01-26T11:27:41.839Z,2.65
2019-01-26T11:30:18.977Z,3.00
2019-01-26T11:32:47.228Z,2.27
2019-01-26T11:35:23.676Z,3.55
2019-01-26T11:37:51.882Z,3.98
2019-01-26T11:40:21.789Z,6.37
2019-01-26T11:42:51.279Z,2.55
2019-01-26T11:45:24.489Z,2.77
2019-01-26T11:47:53.108Z,3.02
2019-01-26T11:50:29.050Z,3.12
2019-01-26T11:52:57.313Z,2.77
2019-01-26T11:55:27.245Z,5.35
2019-01-26T11:57:55.475Z,2.02
2019-01-26T12:00:31.370Z,1.37
2019-01-26T12:03:01.579Z,1.62
2019-01-26T12:05:31.430Z,2.22
2019-01-26T12:07:59.672Z,3.42
2019-01-26T12:10:27.989Z,2.30
2019-01-26T12:12:57.913Z,3.30
2019-01-26T12:15:26.524Z,2.08
2019-01-26T12:17:54.729Z,2.72
2019-01-26T12:20:24.238Z,1.37
2019-01-26T12:22:52.468Z,1.87
2019-01-26T12:25:20.753Z,2.20
2019-01-26T12:27:48.977Z,1.42
2019-01-26T12:30:17.207Z,1.92
2019-01-26T12:32:45.433Z,1.02
2019-01-26T12:35:14.660Z,1.87
2019-01-26T12:37:42.844Z,2.15
2019-01-26T12:40:13.623Z,2.90
2019-01-26T12:42:41.851Z,1.50
2019-01-26T12:45:18.984Z,2.85
2019-01-26T12:47:47.231Z,1.72
2019-01-26T12:50:15.556Z,2.70
2019-01-26T12:52:43.861Z,1.70
2019-01-26T12:55:16.978Z,1.40
2019-01-26T12:57:45.287Z,1.50
2019-01-26T13:00:16.739Z,0.80
2019-01-26T13:02:44.969Z,1.25
2019-01-26T13:05:13.224Z,1.85
2019-01-26T13:07:41.533Z,0.80
2019-01-26T13:10:21.882Z,1.50
2019-01-26T13:12:50.147Z,1.72
2019-01-26T13:15:18.385Z,1.60
2019-01-26T13:17:46.725Z,1.92
2019-01-26T13:20:16.162Z,1.87
2019-01-26T13:22:44.381Z,1.40
2019-01-26T13:25:15.805Z,1.82
2019-01-26T13:27:44.037Z,1.72
2019-01-26T13:30:18.302Z,2.15
2019-01-26T13:32:46.729Z,0.93
2019-01-26T13:35:15.063Z,1.22
2019-01-26T13:37:43.294Z,1.30
2019-01-26T13:40:23.851Z,1.65
2019-01-26T13:42:53.271Z,1.82
2019-01-26T13:45:21.506Z,1.15
2019-01-26T13:47:49.755Z,1.67
2019-01-26T13:50:18.048Z,2.00
2019-01-26T13:52:46.449Z,1.90
2019-01-26T13:55:22.073Z,2.17
2019-01-26T13:57:50.402Z,1.40
2019-01-26T14:00:24.516Z,0.80
2019-01-26T14:02:52.917Z,2.67
2019-01-26T14:05:21.146Z,2.10
2019-01-26T14:07:49.390Z,1.72
2019-01-26T14:10:21.974Z,2.10
2019-01-26T14:12:50.198Z,1.77
2019-01-26T14:15:19.878Z,1.50
2019-01-26T14:17:48.281Z,2.08
2019-01-26T14:20:19.532Z,1.95
2019-01-26T14:22:47.777Z,1.80
2019-01-26T14:25:17.167Z,1.35
2019-01-26T14:27:45.518Z,3.12
2019-01-26T14:30:35.570Z,2.45
2019-01-26T14:33:04.045Z,1.55
2019-01-26T14:35:33.861Z,2.15
2019-01-26T14:38:02.089Z,2.17
2019-01-26T14:40:30.317Z,3.47
2019-01-26T14:42:58.582Z,1.95
2019-01-26T14:45:26.799Z,1.22
2019-01-26T14:47:55.043Z,1.27
2019-01-26T14:50:23.515Z,2.55
2019-01-26T14:52:51.734Z,3.12
2019-01-26T14:55:26.070Z,3.80
2019-01-26T14:57:54.307Z,2.85
2019-01-26T15:00:30.970Z,2.52
2019-01-26T15:02:59.194Z,3.10
2019-01-26T15:05:27.534Z,2.42
2019-01-26T15:07:55.764Z,1.80
2019-01-26T15:10:24.003Z,4.50
2019-01-26T15:12:52.273Z,2.60
2019-01-26T15:15:21.032Z,2.62
2019-01-26T15:17:49.316Z,2.00
2019-01-26T15:20:38.186Z,1.60
2019-01-26T15:23:07.179Z,2.67
2019-01-26T15:25:36.234Z,1.62
2019-01-26T15:28:04.740Z,2.02
2019-01-26T15:30:35.515Z,1.90
2019-01-26T15:33:03.920Z,2.67
2019-01-26T15:35:32.153Z,3.27
2019-01-26T15:38:00.421Z,2.95
2019-01-26T15:40:28.613Z,1.70
2019-01-26T15:42:56.836Z,1.40
2019-01-26T15:45:27.559Z,3.00
2019-01-26T15:47:55.777Z,2.02
2019-01-26T15:50:24.068Z,1.50
2019-01-26T15:52:52.719Z,3.30
2019-01-26T15:55:23.632Z,2.70
2019-01-26T15:57:51.863Z,1.67
2019-01-26T16:00:35.008Z,2.98
2019-01-26T16:03:03.339Z,2.70
2019-01-26T16:05:31.603Z,2.65
2019-01-26T16:07:59.829Z,4.72
2019-01-26T16:10:28.074Z,3.05
2019-01-26T16:12:56.289Z,1.52
2019-01-26T16:15:26.810Z,4.97
2019-01-26T16:17:55.108Z,2.98
2019-01-26T16:20:24.274Z,4.53
2019-01-26T16:22:52.615Z,4.58
2019-01-26T16:25:20.901Z,5.58
2019-01-26T16:27:49.132Z,3.50
2019-01-26T16:30:26.503Z,5.90
2019-01-26T16:32:54.761Z,3.77
2019-01-26T16:35:23.316Z,6.28
2019-01-26T16:37:51.911Z,5.75
2019-01-26T16:40:22.723Z,5.47
2019-01-26T16:42:50.936Z,4.60
2019-01-26T16:45:24.514Z,3.60
2019-01-26T16:47:52.896Z,2.90
2019-01-26T16:50:29.280Z,7.42
2019-01-26T16:52:57.501Z,3.45
2019-01-26T16:55:25.957Z,3.30
2019-01-26T16:57:54.648Z,5.25
2019-01-26T17:00:32.035Z,3.50
2019-01-26T17:03:01.760Z,6.47
2019-01-26T17:05:30.245Z,3.70
2019-01-26T17:07:58.498Z,3.77
2019-01-26T17:10:33.943Z,4.87
2019-01-26T17:12:57.032Z,10.18
2019-01-26T17:15:25.257Z,7.20
2019-01-26T17:17:53.552Z,3.83
2019-01-26T17:20:24.681Z,4.37
2019-01-26T17:22:52.893Z,4.42
2019-01-26T17:25:21.151Z,5.72
2019-01-26T17:27:49.506Z,3.95
2019-01-26T17:30:25.936Z,3.67
2019-01-26T17:32:55.075Z,8.83
2019-01-26T17:35:23.312Z,8.83
2019-01-26T17:37:51.517Z,9.38
2019-01-26T17:40:21.899Z,9.98
2019-01-26T17:42:50.137Z,7.03
2019-01-26T17:45:19.213Z,6.75
2019-01-26T17:47:47.636Z,6.67
2019-01-26T17:50:18.448Z,4.53
2019-01-26T17:52:46.726Z,6.22
2019-01-26T17:55:15.004Z,4.83
2019-01-26T17:57:43.263Z,6.20
2019-01-26T18:00:21.874Z,5.45
2019-01-26T18:02:50.072Z,5.60
2019-01-26T18:05:18.291Z,4.85
2019-01-26T18:07:46.539Z,6.80
2019-01-26T18:10:20.518Z,5.05
2019-01-26T18:12:48.733Z,4.97
2019-01-26T18:15:17.887Z,5.35
2019-01-26T18:17:46.112Z,6.53
2019-01-26T18:20:28.769Z,5.37
2019-01-26T18:22:57.024Z,7.47
2019-01-26T18:25:27.231Z,5.58
2019-01-26T18:27:55.457Z,4.05
2019-01-26T18:30:31.184Z,5.22
2019-01-26T18:32:59.416Z,6.25
2019-01-26T18:35:27.659Z,7.45
2019-01-26T18:37:55.910Z,4.05
2019-01-26T18:40:27.953Z,5.72
2019-01-26T18:42:56.262Z,7.87
2019-01-26T18:45:26.624Z,5.97
2019-01-26T18:47:55.027Z,5.22
2019-01-26T18:50:31.808Z,5.75
2019-01-26T18:53:00.038Z,5.97
2019-01-26T18:55:28.349Z,7.10
2019-01-26T18:57:56.610Z,5.10
2019-01-26T19:00:27.482Z,8.40
2019-01-26T19:02:59.320Z,5.50
2019-01-26T19:05:28.798Z,5.28
2019-01-26T19:07:57.012Z,7.42
2019-01-26T19:10:25.230Z,4.50
2019-01-26T19:12:53.489Z,6.10
2019-01-26T19:15:23.646Z,5.62
2019-01-26T19:17:51.914Z,4.33
2019-01-26T19:20:20.129Z,6.45
2019-01-26T19:22:48.357Z,4.15
2019-01-26T19:25:18.792Z,6.58
2019-01-26T19:27:46.996Z,5.72
2019-01-26T19:30:22.124Z,6.72
2019-01-26T19:32:50.450Z,5.28
2019-01-26T19:35:18.841Z,4.37
2019-01-26T19:37:47.078Z,5.90
2019-01-26T19:40:23.362Z,3.95
2019-01-26T19:42:51.910Z,4.00
2019-01-26T19:45:21.563Z,2.90
2019-01-26T19:47:49.891Z,6.85
2019-01-26T19:50:23.961Z,6.12
2019-01-26T19:52:52.227Z,4.47
2019-01-26T19:55:21.826Z,4.30
2019-01-26T19:57:50.051Z,4.83
2019-01-26T20:00:18.295Z,4.37
2019-01-26T20:02:46.532Z,4.42
2019-01-26T20:05:22.778Z,6.72
2019-01-26T20:07:51.011Z,3.75
2019-01-26T20:10:19.498Z,2.90
2019-01-26T20:12:47.723Z,2.55
2019-01-26T20:15:18.757Z,3.27
2019-01-26T20:17:47.113Z,2.62
2019-01-26T20:20:18.187Z,5.00
2019-01-26T20:22:46.603Z,3.00
2019-01-26T20:25:14.900Z,2.90
2019-01-26T20:27:43.142Z,2.02
2019-01-26T20:30:14.774Z,1.95
2019-01-26T20:32:43.008Z,3.35
2019-01-26T20:35:11.268Z,2.70
2019-01-26T20:37:40.791Z,2.05
2019-01-26T20:40:15.222Z,3.02
2019-01-26T20:42:43.441Z,2.87
2019-01-26T20:45:14.816Z,3.17
2019-01-26T20:47:43.037Z,2.47
2019-01-26T20:50:13.297Z,4.10
2019-01-26T20:52:41.568Z,5.90
2019-01-26T20:55:12.654Z,4.70
2019-01-26T20:57:40.953Z,3.77
2019-01-26T21:00:12.682Z,3.70
2019-01-26T21:02:40.943Z,4.53
2019-01-26T21:05:10.821Z,3.20
2019-01-26T21:07:39.422Z,3.10
2019-01-26T21:10:16.709Z,3.70
2019-01-26T21:12:45.050Z,2.47
2019-01-26T21:15:13.263Z,3.72
2019-01-26T21:17:41.500Z,3.47
2019-01-26T21:20:13.002Z,2.72
2019-01-26T21:22:41.241Z,4.17
2019-01-26T21:25:11.498Z,4.25
2019-01-26T21:27:39.750Z,2.35
2019-01-26T21:30:11.364Z,2.47
2019-01-26T21:32:39.594Z,2.15
2019-01-26T21:35:10.111Z,2.70
2019-01-26T21:37:38.368Z,2.55
2019-01-26T21:40:12.973Z,1.85
2019-01-26T21:45:11.251Z,1.98
2019-01-26T21:47:39.485Z,2.65
2019-01-26T21:50:13.440Z,2.30
2019-01-26T21:52:41.694Z,1.70
2019-01-26T21:55:10.190Z,1.90
2019-01-26T21:57:38.497Z,1.27
2019-01-26T22:00:18.043Z,1.47
2019-01-26T22:02:46.256Z,1.30
2019-01-26T22:05:14.473Z,1.72
2019-01-26T22:07:42.698Z,2.02
2019-01-26T22:10:16.354Z,1.22
2019-01-26T22:12:44.589Z,1.80
2019-01-26T22:15:15.671Z,1.85
2019-01-26T22:17:43.912Z,1.20
2019-01-26T22:20:14.921Z,1.65
2019-01-26T22:22:43.180Z,2.47
2019-01-26T22:25:13.125Z,1.80
2019-01-26T22:27:41.349Z,1.67
2019-01-26T22:30:12.838Z,2.33
2019-01-26T22:32:41.082Z,2.20
2019-01-26T22:35:09.312Z,2.45
2019-01-26T22:37:37.556Z,2.05
2019-01-26T22:40:15.378Z,2.30
2019-01-26T22:42:43.617Z,2.15
2019-01-26T22:45:12.377Z,1.98
2019-01-26T22:47:40.599Z,5.67
2019-01-26T22:50:16.773Z,1.70
2019-01-26T22:52:44.993Z,1.70
2019-01-26T22:55:15.485Z,3.17
2019-01-26T22:57:43.749Z,1.60
2019-01-26T23:00:35.143Z,1.75
2019-01-26T23:03:03.424Z,1.42
2019-01-26T23:06:10.732Z,1.00
2019-01-26T23:08:38.958Z,1.40
2019-01-26T23:11:18.320Z,1.92
2019-01-26T23:13:49.831Z,1.00
2019-01-26T23:16:46.784Z,1.52
2019-01-26T23:19:30.198Z,1.02
2019-01-26T23:22:16.586Z,2.37
2019-01-26T23:24:53.815Z,1.55
2019-01-26T23:27:31.172Z,1.10
2019-01-26T23:30:31.593Z,1.55
2019-01-26T23:32:59.831Z,1.10
2019-01-26T23:35:28.919Z,1.17
2019-01-26T23:37:57.146Z,1.10
2019-01-26T23:40:25.452Z,1.25
2019-01-26T23:42:53.716Z,1.92
2019-01-26T23:45:22.252Z,1.35
2019-01-26T23:47:50.483Z,1.62
2019-01-26T23:50:18.941Z,1.57
2019-01-26T23:52:47.133Z,0.85
2019-01-26T23:55:15.361Z,0.78
2019-01-26T23:57:43.624Z,1.02
